Time;durP1;ratioP1;P1;durP2;ratioP2;P2;SDS_P1;SDS_P2;PMS_P1;PMS_P2;Temp;Humidity;BMP_temperature;BMP_pressure;BME280_temperature;BME280_humidity;BME280_pressure;Samples;Min_cycle;Max_cycle;Signal;HPM_P1;HPM_P2
2022/06/30 00:01:24;;;;;;;3.50;2.10;;;;;;;15.75;99.98;156478.16;4987813;28;20045;-76
2022/06/30 00:03:49;;;;;;;2.22;1.60;;;;;;;15.76;99.75;156480.72;5000120;28;20164;-76
2022/06/30 00:06:15;;;;;;;6.35;2.28;;;;;;;15.72;100.00;156471.63;5011212;28;20056;-77
2022/06/30 00:08:40;;;;;;;3.20;2.20;;;;;;;15.70;100.00;156465.22;5022341;28;20851;-76
2022/06/30 00:11:09;;;;;;;5.65;2.10;;;;;;;15.65;100.00;156452.34;5017511;28;20060;-75
2022/06/30 00:13:37;;;;;;;4.43;2.00;;;;;;;15.58;100.00;156435.63;4994347;28;20744;-76
2022/06/30 00:16:04;;;;;;;3.08;1.85;;;;;;;15.46;100.00;156406.00;5021668;28;20378;-77
2022/06/30 00:18:30;;;;;;;6.32;2.05;;;;;;;15.41;100.00;156391.84;5001753;28;20037;-75
2022/06/30 00:20:56;;;;;;;5.90;1.95;;;;;;;15.38;100.00;156386.72;5025128;28;20029;-77
2022/06/30 00:23:22;;;;;;;3.38;1.95;;;;;;;15.37;100.00;156382.88;5028191;28;20076;-76
2022/06/30 00:25:50;;;;;;;4.38;1.98;;;;;;;15.33;100.00;156372.56;5010525;28;20073;-75
2022/06/30 00:28:18;;;;;;;4.72;1.92;;;;;;;15.31;100.00;156367.41;5010930;28;20042;-78
2022/06/30 00:30:48;;;;;;;5.45;2.00;;;;;;;15.22;100.00;156344.25;4992978;28;20093;-77
2022/06/30 00:33:13;;;;;;;4.50;2.00;;;;;;;15.18;100.00;156335.25;5001608;28;20052;-77
2022/06/30 00:35:39;;;;;;;3.97;2.00;;;;;;;15.25;100.00;156352.00;5023865;28;20033;-77
2022/06/30 00:38:05;;;;;;;6.50;2.15;;;;;;;15.19;100.00;156339.09;5018262;28;20053;-77
2022/06/30 00:40:39;;;;;;;3.53;2.28;;;;;;;15.09;100.00;156312.13;5022288;28;20104;-76
2022/06/30 00:43:04;;;;;;;4.35;2.30;;;;;;;15.01;100.00;156292.78;5017216;23;20197;-79
2022/06/30 00:45:31;;;;;;;3.45;2.08;;;;;;;14.96;100.00;156281.22;5025331;28;20083;-79
2022/06/30 00:47:58;;;;;;;4.40;1.95;;;;;;;14.87;100.00;156256.78;5038941;28;20395;-78
2022/06/30 00:50:24;;;;;;;3.50;2.03;;;;;;;14.85;100.00;156251.66;5053000;28;20030;-80
2022/06/30 00:52:50;;;;;;;4.80;2.50;;;;;;;14.66;100.00;156205.34;5016246;28;20388;-79
2022/06/30 00:55:18;;;;;;;2.85;2.08;;;;;;;14.68;100.00;156209.22;5034514;28;20045;-81
2022/06/30 00:57:44;;;;;;;4.03;2.00;;;;;;;14.62;100.00;156193.75;5015973;28;20044;-80
2022/06/30 01:00:11;;;;;;;6.32;2.45;;;;;;;14.54;100.00;156175.72;5054312;28;20036;-80
2022/06/30 01:02:37;;;;;;;4.55;2.40;;;;;;;14.56;100.00;156180.88;5052858;28;20056;-81
2022/06/30 01:05:03;;;;;;;5.45;2.50;;;;;;;14.59;100.00;156188.59;5029693;28;20048;-78
2022/06/30 01:07:30;;;;;;;4.32;2.28;;;;;;;14.60;100.00;156191.19;5051858;28;20029;-80
2022/06/30 01:12:44;;;;;;;5.28;2.60;;;;;;;14.44;100.00;156149.97;5059088;28;20029;-80
2022/06/30 01:15:14;;;;;;;7.28;2.63;;;;;;;14.38;100.00;156134.56;5048252;28;20033;-80
2022/06/30 01:17:40;;;;;;;4.63;2.53;;;;;;;14.24;100.00;156099.84;5020120;28;20083;-81
2022/06/30 01:20:06;;;;;;;9.30;3.00;;;;;;;14.22;100.00;156094.66;5027856;28;20403;-82
2022/06/30 01:22:33;;;;;;;3.83;2.63;;;;;;;14.26;100.00;156105.00;5020240;28;20036;-80
2022/06/30 01:24:58;;;;;;;8.25;3.10;;;;;;;14.16;100.00;156080.53;5033254;28;20594;-79
2022/06/30 01:27:24;;;;;;;6.63;2.67;;;;;;;14.18;100.00;156084.38;5031664;28;20064;-80
2022/06/30 01:29:51;;;;;;;5.10;2.50;;;;;;;14.15;100.00;156077.97;5050037;28;20029;-80
2022/06/30 01:32:17;;;;;;;3.33;2.47;;;;;;;14.08;100.00;156058.69;5043938;28;20029;-81
2022/06/30 01:34:42;;;;;;;5.97;2.78;;;;;;;14.03;100.00;156047.09;5016612;28;20034;-80
2022/06/30 01:37:08;;;;;;;6.75;3.33;;;;;;;13.98;100.00;156034.28;5018268;28;20040;-80
2022/06/30 01:39:34;;;;;;;4.25;2.45;;;;;;;13.89;100.00;156011.13;5018646;28;20045;-79
2022/06/30 01:42:01;;;;;;;6.00;3.00;;;;;;;13.89;100.00;156012.41;5018542;28;20055;-79
2022/06/30 01:44:27;;;;;;;5.72;2.70;;;;;;;13.81;100.00;155993.13;5033167;28;20381;-81
2022/06/30 01:46:52;;;;;;;6.05;3.17;;;;;;;13.79;100.00;155987.97;5016555;28;20052;-78
2022/06/30 01:49:18;;;;;;;3.83;2.88;;;;;;;13.80;100.00;155989.25;5045478;28;20029;-79
2022/06/30 01:51:44;;;;;;;8.60;3.25;;;;;;;13.77;100.00;155982.84;5035014;28;20061;-81
2022/06/30 01:54:10;;;;;;;5.40;2.78;;;;;;;13.85;100.00;156000.84;5035029;28;20029;-79
2022/06/30 01:56:36;;;;;;;4.78;2.80;;;;;;;13.88;100.00;156008.53;5018877;28;20032;-80
2022/06/30 01:59:02;;;;;;;3.25;2.70;;;;;;;13.83;100.00;155997.00;5032722;28;20033;-79
2022/06/30 02:01:28;;;;;;;7.15;2.95;;;;;;;13.81;100.00;155993.13;5015734;28;20048;-79
2022/06/30 02:03:54;;;;;;;5.88;2.88;;;;;;;13.77;100.00;155981.56;5045260;28;20033;-79
2022/06/30 02:06:19;;;;;;;4.50;2.70;;;;;;;13.72;100.00;155969.97;5016239;28;20047;-79
2022/06/30 02:08:45;;;;;;;5.25;3.00;;;;;;;13.77;100.00;155981.56;5034306;28;20503;-79
2022/06/30 02:11:10;;;;;;;7.25;3.00;;;;;;;13.76;100.00;155980.25;5031365;28;20039;-80
2022/06/30 02:13:36;;;;;;;6.93;3.13;;;;;;;13.73;100.00;155971.25;5048395;28;20025;-79
2022/06/30 02:16:02;;;;;;;7.18;3.13;;;;;;;13.67;100.00;155957.13;5032358;28;20048;-81
2022/06/30 02:18:28;;;;;;;6.72;3.47;;;;;;;13.61;100.00;155941.69;5029280;28;20398;-81
2022/06/30 02:20:53;;;;;;;8.43;3.47;;;;;;;13.65;100.00;155950.69;5024978;28;20038;-81
2022/06/30 02:23:19;;;;;;;10.40;3.40;;;;;;;13.49;100.00;155910.88;5031835;28;20571;-80
2022/06/30 02:25:44;;;;;;;7.10;3.20;;;;;;;13.54;100.00;155923.69;5017204;28;20029;-79
2022/06/30 02:28:10;;;;;;;6.75;3.17;;;;;;;13.50;100.00;155913.41;5045335;28;20029;-81
2022/06/30 02:30:36;;;;;;;6.22;3.03;;;;;;;13.55;100.00;155927.56;5029106;28;20403;-80
2022/06/30 02:33:01;;;;;;;10.68;3.50;;;;;;;13.68;100.00;155959.72;5028954;28;20068;-81
2022/06/30 02:35:27;;;;;;;10.57;3.78;;;;;;;13.68;100.00;155959.72;5041569;28;20037;-81
2022/06/30 02:37:57;;;;;;;10.25;3.35;;;;;;;13.65;100.00;155950.69;5048525;28;20041;-81
2022/06/30 02:40:23;;;;;;;10.57;4.15;;;;;;;13.68;100.00;155958.44;5032245;28;20037;-80
2022/06/30 02:42:49;;;;;;;11.02;3.85;;;;;;;13.69;100.00;155962.25;5029311;28;20040;-78
2022/06/30 02:45:15;;;;;;;6.00;3.67;;;;;;;13.62;100.00;155945.56;5027683;28;20056;-78
2022/06/30 02:47:42;;;;;;;8.60;3.47;;;;;;;13.64;100.00;155949.44;5027398;28;20044;-81
2022/06/30 02:50:10;;;;;;;5.60;3.35;;;;;;;13.68;100.00;155958.44;5043004;28;20036;-80
2022/06/30 02:52:36;;;;;;;9.50;4.03;;;;;;;13.67;100.00;155955.84;5030227;28;20033;-80
2022/06/30 02:55:03;;;;;;;8.95;3.53;;;;;;;13.68;100.00;155959.72;5032172;28;20139;-80
2022/06/30 02:57:30;;;;;;;5.55;3.83;;;;;;;13.72;100.00;155969.97;5043256;28;20047;-79
2022/06/30 02:59:56;;;;;;;7.80;3.60;;;;;;;13.76;100.00;155980.25;5022110;28;20036;-80
2022/06/30 03:02:21;;;;;;;6.95;4.00;;;;;;;13.83;100.00;155998.25;5044150;28;20364;-80
2022/06/30 03:04:47;;;;;;;6.85;4.18;;;;;;;13.82;100.00;155995.72;5028545;28;20050;-80
2022/06/30 03:07:13;;;;;;;10.30;4.40;;;;;;;13.91;100.00;156017.53;5016201;28;20036;-80
2022/06/30 03:09:39;;;;;;;7.65;4.25;;;;;;;13.97;100.00;156031.69;5035319;28;20025;-80
2022/06/30 03:12:05;;;;;;;8.32;4.50;;;;;;;13.95;100.00;156027.81;5021225;28;20047;-79
2022/06/30 03:14:30;;;;;;;6.50;4.03;;;;;;;14.01;100.00;156043.28;5032102;28;20323;-81
2022/06/30 03:16:56;;;;;;;7.85;3.95;;;;;;;14.04;100.00;156048.41;5033120;28;20499;-79
2022/06/30 03:19:22;;;;;;;5.13;4.30;;;;;;;14.03;100.00;156047.09;5048646;28;20046;-79
2022/06/30 03:21:48;;;;;;;8.93;4.10;;;;;;;14.09;100.00;156061.25;5014061;28;20431;-81
2022/06/30 03:24:13;;;;;;;5.93;3.95;;;;;;;14.08;100.00;156059.97;5013879;28;20041;-81
2022/06/30 03:26:39;;;;;;;7.85;4.05;;;;;;;14.04;100.00;156049.69;5052145;28;20025;-81
2022/06/30 03:29:05;;;;;;;6.13;4.50;;;;;;;14.06;100.00;156054.81;5033623;28;20024;-81
2022/06/30 03:31:31;;;;;;;8.80;4.35;;;;;;;14.11;100.00;156067.69;5028478;28;20033;-80
2022/06/30 03:33:57;;;;;;;7.57;4.50;;;;;;;14.11;100.00;156066.38;5049318;28;20116;-81
2022/06/30 03:36:23;;;;;;;7.70;4.25;;;;;;;14.10;100.00;156063.84;5031747;28;20148;-80
2022/06/30 03:38:48;;;;;;;4.82;4.28;;;;;;;14.06;100.00;156053.56;5025745;28;20060;-80
2022/06/30 03:41:14;;;;;;;7.07;3.97;;;;;;;14.06;100.00;156054.81;5047216;28;20033;-80
2022/06/30 03:43:40;;;;;;;10.02;3.97;;;;;;;14.09;100.00;156061.25;5040856;28;20796;-81
2022/06/30 03:46:06;;;;;;;8.20;4.32;;;;;;;14.09;100.00;156061.25;5031978;28;20478;-80
2022/06/30 03:48:35;;;;;;;7.22;4.55;;;;;;;14.09;100.00;156062.56;5030478;28;20408;-80
2022/06/30 03:51:01;;;;;;;9.57;4.20;;;;;;;14.19;100.00;156086.97;5033888;28;20036;-79
2022/06/30 03:53:27;;;;;;;7.68;4.88;;;;;;;14.23;100.00;156096.00;5048510;28;20518;-82
2022/06/30 03:55:52;;;;;;;10.07;4.28;;;;;;;14.27;100.00;156107.53;5047414;28;20048;-81
2022/06/30 03:58:18;;;;;;;7.68;4.32;;;;;;;14.35;100.00;156128.16;5008959;28;20402;-79
2022/06/30 04:00:43;;;;;;;4.80;4.30;;;;;;;14.40;100.00;156140.97;5057777;28;20495;-78
2022/06/30 04:03:09;;;;;;;7.82;4.50;;;;;;;14.43;100.00;156147.44;5032198;28;20029;-81
2022/06/30 04:05:35;;;;;;;8.48;4.32;;;;;;;14.57;100.00;156182.19;5017838;28;20039;-80
2022/06/30 04:08:00;;;;;;;4.38;3.80;;;;;;;14.69;100.00;156211.75;5050167;28;20487;-80
2022/06/30 04:10:26;;;;;;;7.25;4.15;;;;;;;14.82;100.00;156243.91;5042997;28;20112;-81
2022/06/30 04:12:52;;;;;;;5.65;3.88;;;;;;;14.94;100.00;156274.81;5039621;28;20037;-81
2022/06/30 04:15:17;;;;;;;5.75;3.65;;;;;;;14.88;100.00;156260.66;5017166;28;20048;-80
2022/06/30 04:17:43;;;;;;;6.90;4.03;;;;;;;14.98;100.00;156286.38;5030731;28;20045;-80
2022/06/30 04:20:15;;;;;;;6.85;4.03;;;;;;;15.11;100.00;156317.28;5030711;28;20029;-79
2022/06/30 04:22:46;;;;;;;9.23;3.80;;;;;;;15.23;100.00;156348.13;5025661;28;20091;-81
2022/06/30 04:25:12;;;;;;;11.30;4.13;;;;;;;15.28;100.00;156359.72;5012405;28;20044;-82
2022/06/30 04:27:41;;;;;;;8.45;4.38;;;;;;;15.41;100.00;156391.84;5048856;28;20033;-81
2022/06/30 04:30:07;;;;;;;6.45;3.75;;;;;;;15.42;100.00;156395.72;5033503;28;20037;-81
2022/06/30 04:32:39;;;;;;;5.82;3.80;;;;;;;15.41;100.00;156391.84;5041338;28;20171;-80
2022/06/30 04:35:10;;;;;;;9.43;3.60;;;;;;;15.48;100.00;156411.19;5045124;28;20117;-82
2022/06/30 04:37:35;;;;;;;6.55;3.80;;;;;;;15.54;100.00;156425.34;5039993;28;20048;-80
2022/06/30 04:42:46;;;;;;;8.43;3.88;;;;;;;15.72;100.00;156471.63;5045948;28;20045;-80
2022/06/30 04:45:12;;;;;;;6.85;3.45;;;;;;;15.71;100.00;156469.09;5015028;28;20079;-81
2022/06/30 04:47:38;;;;;;;8.63;3.85;;;;;;;15.76;100.00;156482.03;5044127;28;20025;-82
2022/06/30 04:50:05;;;;;;;10.35;3.60;;;;;;;15.73;100.00;156472.97;5038830;28;20115;-82
2022/06/30 04:52:31;;;;;;;5.82;3.50;;;;;;;15.90;100.00;156516.75;5045963;28;20029;-81
2022/06/30 04:54:57;;;;;;;10.10;3.90;;;;;;;15.95;100.00;156529.66;5030208;28;20037;-81
2022/06/30 04:57:23;;;;;;;5.82;3.40;;;;;;;16.02;100.00;156546.34;5025920;28;20094;-81
2022/06/30 04:59:48;;;;;;;7.05;3.60;;;;;;;16.09;100.00;156564.38;5031551;28;20114;-81
2022/06/30 05:02:14;;;;;;;10.32;3.40;;;;;;;16.25;100.00;156603.00;5046771;28;20033;-81
2022/06/30 05:04:39;;;;;;;9.43;3.53;;;;;;;16.33;100.00;156624.91;5015305;28;20036;-82
2022/06/30 05:07:05;;;;;;;7.72;3.67;;;;;;;16.48;100.00;156660.91;5011495;28;20079;-81
2022/06/30 05:09:30;;;;;;;6.13;3.40;;;;;;;16.57;100.00;156684.09;5036619;28;20036;-82
2022/06/30 05:11:56;;;;;;;8.02;3.63;;;;;;;16.69;100.00;156715.03;5049638;28;20033;-82
2022/06/30 05:14:22;;;;;;;8.15;3.45;;;;;;;17.01;100.00;156794.91;5045132;28;20048;-82
2022/06/30 05:16:48;;;;;;;6.88;3.08;;;;;;;17.10;100.00;156816.78;5051410;28;20037;-82
2022/06/30 05:19:14;;;;;;;6.07;3.17;;;;;;;17.20;100.00;156842.56;5034042;28;20029;-81
2022/06/30 05:21:39;;;;;;;7.53;2.83;;;;;;;17.47;100.00;156909.56;5045864;28;20475;-83
2022/06/30 05:26:50;;;;;;;4.80;2.95;;;;;;;17.82;100.00;156998.47;5032210;28;20403;-80
2022/06/30 05:29:15;;;;;;;6.90;3.00;;;;;;;18.08;100.00;157062.91;5052660;28;20054;-80
2022/06/30 05:31:41;;;;;;;5.40;2.70;;;;;;;18.19;100.00;157091.28;5053432;28;20457;-80
2022/06/30 05:34:07;;;;;;;7.65;2.83;;;;;;;18.17;100.00;157084.84;5050577;28;20036;-79
2022/06/30 05:36:33;;;;;;;6.78;3.00;;;;;;;18.37;100.00;157136.41;5009941;28;20033;-81
2022/06/30 05:38:58;;;;;;;5.68;2.70;;;;;;;18.43;100.00;157150.56;5045255;28;20037;-82
2022/06/30 05:41:24;;;;;;;5.10;2.60;;;;;;;18.47;100.00;157162.16;5035570;28;20422;-81
2022/06/30 05:43:51;;;;;;;8.20;3.03;;;;;;;18.52;100.00;157173.78;5032903;28;20059;-80
2022/06/30 05:46:17;;;;;;;5.07;2.78;;;;;;;18.53;100.00;157175.06;5042533;28;20029;-80
2022/06/30 05:48:42;;;;;;;6.70;2.92;;;;;;;18.50;100.00;157168.63;5038071;28;20048;-79
2022/06/30 05:51:08;;;;;;;7.30;2.65;;;;;;;18.44;100.00;157153.13;5049688;28;20025;-81
2022/06/30 05:53:34;;;;;;;8.18;3.22;;;;;;;18.43;100.00;157151.84;5027997;28;20029;-82
2022/06/30 05:55:59;;;;;;;5.45;2.50;;;;;;;18.50;100.00;157168.63;5047212;28;20033;-81
2022/06/30 05:58:25;;;;;;;7.18;2.60;;;;;;;18.54;100.00;157177.66;5050906;28;20089;-81
2022/06/30 06:00:51;;;;;;;8.43;2.90;;;;;;;18.72;100.00;157224.03;5035123;28;20037;-80
2022/06/30 06:03:17;;;;;;;7.28;3.13;;;;;;;18.92;100.00;157273.09;5014045;28;20044;-80
2022/06/30 06:05:42;;;;;;;4.93;2.65;;;;;;;19.10;100.00;157318.22;5031152;28;20037;-78
2022/06/30 06:08:10;;;;;;;2.63;2.15;;;;;;;19.33;100.00;157377.53;5017942;28;20116;-80
2022/06/30 06:10:36;;;;;;;7.05;2.60;;;;;;;19.61;99.92;157448.47;5032725;28;20041;-80
2022/06/30 06:13:03;;;;;;;4.72;2.50;;;;;;;19.85;97.11;157507.84;5049759;28;20498;-79
2022/06/30 06:15:28;;;;;;;7.40;2.85;;;;;;;20.00;95.28;157546.56;5029200;28;20472;-80
2022/06/30 06:17:54;;;;;;;4.53;2.65;;;;;;;20.10;94.87;157569.75;5049182;28;20072;-80
2022/06/30 06:20:19;;;;;;;7.65;2.58;;;;;;;20.15;95.72;157583.94;5030715;28;20056;-79
2022/06/30 06:22:45;;;;;;;5.82;2.60;;;;;;;20.29;96.01;157618.81;5043078;28;20069;-82
2022/06/30 06:25:12;;;;;;;9.00;2.40;;;;;;;20.34;95.76;157630.41;5049162;28;20074;-81
2022/06/30 06:27:38;;;;;;;10.50;2.78;;;;;;;20.52;93.92;157676.88;5032178;28;20466;-80
2022/06/30 06:30:05;;;;;;;6.22;2.13;;;;;;;20.57;92.84;157689.78;5050917;28;20455;-80
2022/06/30 06:32:31;;;;;;;4.00;2.65;;;;;;;20.68;91.65;157715.63;5033771;28;20395;-80
2022/06/30 06:34:57;;;;;;;6.13;2.50;;;;;;;20.78;92.29;157741.47;5047534;28;20033;-79
2022/06/30 06:37:24;;;;;;;8.43;2.88;;;;;;;20.77;91.47;157740.13;5049761;28;20308;-80
2022/06/30 06:39:50;;;;;;;3.88;2.08;;;;;;;20.80;90.65;157746.63;5030824;28;20104;-81
2022/06/30 06:42:15;;;;;;;5.78;2.45;;;;;;;20.84;91.78;157755.66;5048417;28;20116;-79
2022/06/30 06:44:41;;;;;;;5.82;2.58;;;;;;;20.85;90.76;157759.53;5047042;28;20522;-80
2022/06/30 06:47:07;;;;;;;5.47;2.60;;;;;;;20.98;90.52;157793.09;5029060;28;20033;-78
2022/06/30 06:49:33;;;;;;;5.07;2.65;;;;;;;21.13;90.01;157830.47;5045172;28;20036;-79
2022/06/30 06:51:59;;;;;;;3.15;2.22;;;;;;;21.17;88.49;157839.53;5041398;28;20037;-79
2022/06/30 06:54:24;;;;;;;3.97;2.45;;;;;;;21.23;88.63;157855.06;5040841;28;20039;-81
2022/06/30 06:56:50;;;;;;;4.10;2.25;;;;;;;21.41;88.88;157900.22;5044226;28;20411;-81
2022/06/30 06:59:16;;;;;;;6.57;2.58;;;;;;;21.43;89.07;157905.38;5047919;28;20394;-78
2022/06/30 07:01:42;;;;;;;11.60;3.08;;;;;;;21.56;88.19;157938.97;5044600;28;20071;-81
2022/06/30 07:04:08;;;;;;;8.10;2.45;;;;;;;21.58;87.21;157942.88;5044159;28;20033;-79
2022/06/30 07:06:34;;;;;;;6.10;2.50;;;;;;;21.58;86.65;157944.16;5047085;28;20395;-80
2022/06/30 07:09:00;;;;;;;7.15;2.80;;;;;;;21.63;87.79;157955.78;5025988;28;20132;-80
2022/06/30 07:11:26;;;;;;;6.28;2.35;;;;;;;21.76;86.89;157988.06;5043985;28;20048;-79
2022/06/30 07:13:52;;;;;;;8.25;3.60;;;;;;;22.00;85.44;158047.44;5045095;28;20033;-82
2022/06/30 07:16:18;;;;;;;5.40;1.92;;;;;;;22.15;84.65;158087.50;5031034;28;20520;-82
2022/06/30 07:18:43;;;;;;;5.95;2.40;;;;;;;22.28;84.50;158118.53;5048332;28;20118;-81
2022/06/30 07:21:09;;;;;;;3.55;2.38;;;;;;;22.30;83.38;158123.69;5048215;28;20033;-80
2022/06/30 07:23:35;;;;;;;5.63;2.40;;;;;;;22.46;84.02;158165.06;5042262;28;20102;-80
2022/06/30 07:26:00;;;;;;;7.32;2.63;;;;;;;22.60;81.70;158198.63;5044990;28;20041;-81
2022/06/30 07:28:26;;;;;;;7.35;2.95;;;;;;;22.57;83.54;158190.91;5029484;28;20062;-83
2022/06/30 07:30:52;;;;;;;9.10;2.78;;;;;;;22.56;82.79;158189.59;5050418;28;20071;-83
2022/06/30 07:33:18;;;;;;;8.40;2.70;;;;;;;22.70;81.91;158224.50;5013712;28;20039;-81
2022/06/30 07:35:44;;;;;;;3.38;2.60;;;;;;;22.81;80.12;158252.91;5032030;28;20430;-81
2022/06/30 07:38:10;;;;;;;6.15;2.10;;;;;;;22.91;79.14;158277.44;5032155;28;20029;-82
2022/06/30 07:40:36;;;;;;;5.13;2.30;;;;;;;23.00;77.83;158300.72;5025985;28;20036;-79
2022/06/30 07:43:01;;;;;;;8.23;2.72;;;;;;;23.15;76.09;158336.91;5031311;28;20147;-78
2022/06/30 07:45:27;;;;;;;6.22;2.20;;;;;;;23.24;77.24;158361.47;5045939;28;20546;-80
2022/06/30 07:47:53;;;;;;;7.50;2.55;;;;;;;23.26;77.41;158365.34;5049172;28;20033;-82
2022/06/30 07:50:19;;;;;;;7.20;2.38;;;;;;;23.25;76.28;158364.06;5031890;28;20091;-81
2022/06/30 07:52:46;;;;;;;4.50;2.40;;;;;;;23.48;75.74;158420.94;5046073;28;20131;-79
2022/06/30 07:55:12;;;;;;;4.72;2.17;;;;;;;23.56;75.21;158441.59;5016983;28;20036;-80
2022/06/30 07:57:42;;;;;;;4.72;2.30;;;;;;;23.61;75.29;158453.25;5022293;28;20545;-80
2022/06/30 08:00:10;;;;;;;5.15;2.13;;;;;;;23.74;73.39;158486.84;5031928;28;20520;-80
2022/06/30 08:02:38;;;;;;;3.92;2.65;;;;;;;23.70;74.25;158477.78;5028937;28;21764;-78
2022/06/30 08:05:06;;;;;;;4.28;2.47;;;;;;;23.78;75.78;158495.91;5015231;28;20105;-77
2022/06/30 08:07:32;;;;;;;3.50;2.25;;;;;;;23.93;74.59;158534.72;5041900;28;20033;-80
2022/06/30 08:09:58;;;;;;;6.05;2.35;;;;;;;24.20;71.88;158603.22;5036387;28;20164;-79
2022/06/30 08:12:23;;;;;;;7.47;2.30;;;;;;;24.14;70.69;158586.44;5013840;28;20120;-78
2022/06/30 08:14:49;;;;;;;3.80;2.35;;;;;;;24.26;71.57;158617.44;5046614;28;20101;-81
2022/06/30 08:17:14;;;;;;;6.32;2.50;;;;;;;24.34;70.11;158636.88;5030081;28;20499;-80
2022/06/30 08:19:41;;;;;;;5.80;2.47;;;;;;;24.40;69.40;158653.66;5013296;28;20040;-81
2022/06/30 08:22:07;;;;;;;3.67;2.05;;;;;;;24.50;69.01;158678.22;5029921;28;20039;-80
2022/06/30 08:24:33;;;;;;;3.97;2.35;;;;;;;24.61;69.24;158705.44;5042936;28;20029;-79
2022/06/30 08:27:02;;;;;;;4.20;2.38;;;;;;;24.66;68.59;158718.38;5046891;28;20122;-78
2022/06/30 08:29:28;;;;;;;8.02;2.50;;;;;;;24.63;68.40;158710.59;5025315;28;20395;-80
2022/06/30 08:31:54;;;;;;;3.40;2.38;;;;;;;24.72;67.94;158732.59;5029621;28;20040;-78
2022/06/30 08:34:20;;;;;;;4.03;1.98;;;;;;;24.95;67.24;158790.78;5025828;28;20435;-79
2022/06/30 08:36:45;;;;;;;8.45;2.72;;;;;;;24.94;66.17;158789.50;5031496;28;20530;-82
2022/06/30 08:42:02;;;;;;;5.35;2.05;;;;;;;24.96;66.45;158794.69;5047533;28;20037;-80
2022/06/30 08:42:03;;;;;;;4.22;2.30;;;;;;;25.10;64.38;158828.31;5040070;28;20041;-79
2022/06/30 08:44:36;;;;;;;;;;;;;;;25.22;62.63;158860.66;5051168;28;20064;-79
2022/06/30 08:47:02;;;;;;;;;;;;;;;25.30;66.05;158880.09;5031414;28;19920;-77
2022/06/30 08:49:28;;;;;;;2.85;1.85;;;;;;;25.40;62.92;158905.94;5050657;28;19916;-79
2022/06/30 08:51:57;;;;;;;3.65;2.08;;;;;;;25.18;63.09;158850.25;5034619;28;20073;-79
2022/06/30 08:54:24;;;;;;;5.78;2.15;;;;;;;25.38;65.24;158900.78;5033888;28;20037;-81
2022/06/30 08:56:50;;;;;;;4.35;1.88;;;;;;;25.36;63.75;158895.59;5032888;28;20044;-80
2022/06/30 08:59:17;;;;;;;5.03;2.08;;;;;;;25.29;65.89;158876.22;5045131;28;20371;-80
2022/06/30 09:01:43;;;;;;;4.78;2.10;;;;;;;25.29;63.58;158876.22;5043700;28;20064;-78
2022/06/30 09:04:13;;;;;;;5.72;2.10;;;;;;;25.53;66.14;158937.00;5029701;28;20033;-80
2022/06/30 09:06:43;;;;;;;4.13;2.08;;;;;;;25.89;62.64;159028.84;5034062;28;20040;-78
2022/06/30 09:09:09;;;;;;;2.38;1.70;;;;;;;25.93;58.53;159039.25;5032404;28;20102;-79
2022/06/30 09:11:48;;;;;;;3.83;2.08;;;;;;;25.87;59.14;159023.69;5032534;28;20474;-78
2022/06/30 09:14:33;;;;;;;3.47;1.90;;;;;;;25.85;60.69;159018.50;5050627;28;20036;-80
2022/06/30 09:17:00;;;;;;;2.13;1.63;;;;;;;26.00;58.74;159057.38;5038643;28;20028;-79
2022/06/30 09:19:25;;;;;;;4.70;2.25;;;;;;;26.13;58.14;159088.44;5019665;28;20658;-80
2022/06/30 09:22:09;;;;;;;5.72;1.65;;;;;;;26.17;56.85;159098.78;5039393;28;20029;-81
2022/06/30 09:24:35;;;;;;;1.90;1.70;;;;;;;26.20;57.13;159107.84;5030971;28;20029;-82
2022/06/30 09:27:19;;;;;;;4.20;2.00;;;;;;;26.26;56.26;159122.09;5050660;28;20505;-78
2022/06/30 09:30:11;;;;;;;5.53;1.98;;;;;;;26.54;57.08;159193.28;5044077;28;20061;-78
2022/06/30 09:32:43;;;;;;;;;;;;;;;26.57;56.48;159201.00;5046817;28;20037;-78
2022/06/30 09:35:10;;;;;;;3.35;1.85;;;;;;;26.62;54.27;159212.75;5048653;28;20000;-76
2022/06/30 09:37:37;;;;;;;3.35;2.00;;;;;;;26.69;55.69;159230.88;5062589;28;20107;-80
2022/06/30 09:40:04;;;;;;;3.40;2.10;;;;;;;26.74;59.58;159242.50;5042105;28;20091;-78
2022/06/30 09:42:39;;;;;;;2.88;1.80;;;;;;;26.95;56.36;159296.84;5026926;28;20124;-80
2022/06/30 09:45:07;;;;;;;3.05;1.75;;;;;;;27.26;54.30;159374.59;5031565;28;20498;-79
2022/06/30 09:47:33;;;;;;;2.33;1.70;;;;;;;27.21;55.74;159361.59;5043110;28;20065;-81
2022/06/30 09:50:06;;;;;;;4.95;1.83;;;;;;;27.20;55.27;159359.03;5030426;28;20037;-78
2022/06/30 09:52:33;;;;;;;2.72;2.03;;;;;;;27.25;54.43;159370.66;5028454;28;20510;-80
2022/06/30 09:55:01;;;;;;;4.32;1.92;;;;;;;27.48;57.09;159428.97;5032910;28;20056;-77
2022/06/30 09:57:41;;;;;;;3.90;2.10;;;;;;;27.54;54.29;159445.81;5028612;28;20033;-80
2022/06/30 10:00:16;;;;;;;3.25;2.00;;;;;;;27.57;55.50;159453.56;5021478;28;20029;-78
2022/06/30 10:02:46;;;;;;;4.32;1.85;;;;;;;27.57;53.04;159453.56;5043996;28;20049;-76
2022/06/30 10:05:13;;;;;;;4.68;2.08;;;;;;;27.55;54.45;159447.09;5049536;28;20044;-78
2022/06/30 10:07:41;;;;;;;4.75;2.00;;;;;;;27.61;54.35;159462.63;5044925;28;20045;-78
2022/06/30 10:10:12;;;;;;;5.68;2.28;;;;;;;27.65;53.86;159471.69;5033893;28;20036;-80
2022/06/30 10:12:40;;;;;;;3.35;1.88;;;;;;;27.74;54.06;159495.00;5046640;28;20033;-80
2022/06/30 10:15:08;;;;;;;4.85;2.13;;;;;;;27.62;55.23;159463.97;5032268;28;20288;-79
2022/06/30 10:17:37;;;;;;;3.03;1.90;;;;;;;27.71;54.66;159487.28;5044545;28;20036;-81
2022/06/30 10:20:04;;;;;;;3.33;2.05;;;;;;;27.56;54.21;159449.72;5017434;28;20037;-80
2022/06/30 10:22:30;;;;;;;2.83;2.00;;;;;;;27.66;55.12;159475.59;5030864;28;20514;-80
2022/06/30 10:24:57;;;;;;;5.18;2.22;;;;;;;27.84;54.54;159520.94;5028296;28;20067;-81
2022/06/30 10:27:25;;;;;;;3.05;2.30;;;;;;;28.14;54.45;159596.06;5015189;28;20388;-81
2022/06/30 10:30:00;;;;;;;2.80;2.20;;;;;;;28.36;51.36;159651.78;5049362;28;20045;-79
2022/06/30 10:32:41;;;;;;;6.55;2.22;;;;;;;28.47;53.91;159680.28;5042741;28;20040;-78
2022/06/30 10:35:15;;;;;;;4.05;2.30;;;;;;;28.31;52.54;159638.81;5029123;28;20029;-79
2022/06/30 10:37:51;;;;;;;4.95;2.50;;;;;;;28.47;53.74;159679.00;5040687;28;20044;-80
2022/06/30 10:40:46;;;;;;;6.78;2.38;;;;;;;28.34;52.17;159646.59;5060413;28;20056;-77
2022/06/30 10:43:14;;;;;;;3.92;2.42;;;;;;;28.50;53.44;159688.06;5025253;28;20041;-79
2022/06/30 10:46:15;;;;;;;3.80;2.10;;;;;;;28.83;53.72;159769.72;5038873;28;20032;-78
2022/06/30 10:48:53;;;;;;;3.03;2.20;;;;;;;28.25;52.80;159624.56;5017407;23;20049;-77
2022/06/30 10:51:21;;;;;;;7.50;2.70;;;;;;;28.15;53.29;159598.69;5014316;28;20569;-76
2022/06/30 10:53:52;;;;;;;2.95;2.15;;;;;;;28.47;52.70;159680.28;5014884;28;20444;-79
2022/06/30 10:56:19;;;;;;;3.83;2.60;;;;;;;28.54;52.62;159698.47;5008530;28;20063;-78
2022/06/30 10:59:11;;;;;;;2.85;2.22;;;;;;;28.94;53.92;159798.22;4998936;28;20037;-78
2022/06/30 11:01:57;;;;;;;8.15;2.58;;;;;;;28.78;52.24;159758.03;5013296;28;20048;-79
2022/06/30 11:04:23;;;;;;;5.13;2.22;;;;;;;28.87;51.96;159781.38;5027822;28;20040;-76
2022/06/30 11:06:57;;;;;;;3.90;2.25;;;;;;;29.17;52.93;159856.56;5028631;28;20065;-78
2022/06/30 11:09:54;;;;;;;5.05;2.50;;;;;;;29.20;50.36;159864.38;5044789;28;20025;-80
2022/06/30 11:12:29;;;;;;;5.32;2.60;;;;;;;29.12;51.94;159843.56;5009638;28;20404;-79
2022/06/30 11:14:57;;;;;;;4.43;2.65;;;;;;;29.28;50.93;159885.09;5009305;28;20490;-77
2022/06/30 11:17:25;;;;;;;7.53;2.22;;;;;;;29.27;51.28;159882.53;5012616;28;20021;-79
2022/06/30 11:20:05;;;;;;;4.22;2.25;;;;;;;29.32;51.22;159894.16;5029302;28;20063;-77
2022/06/30 11:22:31;;;;;;;4.85;2.25;;;;;;;29.33;51.00;159896.78;5021702;28;20045;-78
2022/06/30 11:25:00;;;;;;;3.15;2.50;;;;;;;29.14;50.08;159848.84;5008237;28;20182;-78
2022/06/30 11:27:28;;;;;;;3.67;2.45;;;;;;;29.15;50.47;159850.13;5033748;28;20037;-78
2022/06/30 11:30:03;;;;;;;4.53;2.50;;;;;;;29.37;49.45;159907.13;5011835;28;20036;-80
2022/06/30 11:32:29;;;;;;;2.40;2.20;;;;;;;29.33;50.34;159895.44;5043757;28;20029;-79